sensor_id;sensor_type;location;lat;lon;timestamp;temperature;humidity
46029;DHT22;31763;48.180;7.904;2022-11-28T00:01:23;5.00;99.90
46029;DHT22;31763;48.180;7.904;2022-11-28T00:03:54;4.90;99.90
46029;DHT22;31763;48.180;7.904;2022-11-28T00:06:21;5.00;99.90
46029;DHT22;31763;48.180;7.904;2022-11-28T00:08:48;5.10;99.90
46029;DHT22;31763;48.180;7.904;2022-11-28T00:11:15;5.20;99.90
46029;DHT22;31763;48.180;7.904;2022-11-28T00:13:44;5.20;99.90
46029;DHT22;31763;48.180;7.904;2022-11-28T00:16:16;5.20;99.90
46029;DHT22;31763;48.180;7.904;2022-11-28T00:18:52;5.20;99.90
46029;DHT22;31763;48.180;7.904;2022-11-28T00:21:20;5.20;99.90
46029;DHT22;31763;48.180;7.904;2022-11-28T00:23:48;5.20;99.90
46029;DHT22;31763;48.180;7.904;2022-11-28T00:26:24;5.20;99.90
46029;DHT22;31763;48.180;7.904;2022-11-28T00:28:54;5.10;99.90
46029;DHT22;31763;48.180;7.904;2022-11-28T00:31:24;4.90;99.90
46029;DHT22;31763;48.180;7.904;2022-11-28T00:33:55;5.00;99.90
46029;DHT22;31763;48.180;7.904;2022-11-28T00:36:23;5.00;99.90
46029;DHT22;31763;48.180;7.904;2022-11-28T00:38:50;5.00;99.90
46029;DHT22;31763;48.180;7.904;2022-11-28T00:41:21;5.10;99.90
46029;DHT22;31763;48.180;7.904;2022-11-28T00:43:49;5.10;99.90
46029;DHT22;31763;48.180;7.904;2022-11-28T00:46:18;5.10;99.90
46029;DHT22;31763;48.180;7.904;2022-11-28T00:48:45;5.10;99.90
46029;DHT22;31763;48.180;7.904;2022-11-28T00:51:19;5.10;99.90
46029;DHT22;31763;48.180;7.904;2022-11-28T00:53:49;5.10;99.90
46029;DHT22;31763;48.180;7.904;2022-11-28T00:56:22;5.20;99.90
46029;DHT22;31763;48.180;7.904;2022-11-28T00:58:51;5.10;99.90
46029;DHT22;31763;48.180;7.904;2022-11-28T01:01:24;5.10;99.90
46029;DHT22;31763;48.180;7.904;2022-11-28T01:03:55;5.20;99.90
46029;DHT22;31763;48.180;7.904;2022-11-28T01:06:26;5.20;99.90
46029;DHT22;31763;48.180;7.904;2022-11-28T01:09:02;5.20;99.90
46029;DHT22;31763;48.180;7.904;2022-11-28T01:11:31;5.10;99.90
46029;DHT22;31763;48.180;7.904;2022-11-28T01:14:00;5.20;99.90
46029;DHT22;31763;48.180;7.904;2022-11-28T01:16:28;5.20;99.90
46029;DHT22;31763;48.180;7.904;2022-11-28T01:18:55;5.10;99.90
46029;DHT22;31763;48.180;7.904;2022-11-28T01:21:22;5.20;99.90
46029;DHT22;31763;48.180;7.904;2022-11-28T01:23:49;4.90;99.90
46029;DHT22;31763;48.180;7.904;2022-11-28T01:26:19;4.90;99.90
46029;DHT22;31763;48.180;7.904;2022-11-28T01:28:47;4.70;99.90
46029;DHT22;31763;48.180;7.904;2022-11-28T01:31:17;4.80;99.90
46029;DHT22;31763;48.180;7.904;2022-11-28T01:33:46;4.90;99.90
46029;DHT22;31763;48.180;7.904;2022-11-28T01:36:14;4.90;99.90
46029;DHT22;31763;48.180;7.904;2022-11-28T01:38:41;4.90;99.90
46029;DHT22;31763;48.180;7.904;2022-11-28T01:41:09;4.80;99.90
46029;DHT22;31763;48.180;7.904;2022-11-28T01:43:36;4.80;99.90
46029;DHT22;31763;48.180;7.904;2022-11-28T01:46:04;4.90;99.90
46029;DHT22;31763;48.180;7.904;2022-11-28T01:48:37;4.90;99.90
46029;DHT22;31763;48.180;7.904;2022-11-28T01:51:07;5.00;99.90
46029;DHT22;31763;48.180;7.904;2022-11-28T01:53:38;5.00;99.90
46029;DHT22;31763;48.180;7.904;2022-11-28T01:56:19;5.00;99.90
46029;DHT22;31763;48.180;7.904;2022-11-28T01:58:51;5.00;99.90
46029;DHT22;31763;48.180;7.904;2022-11-28T02:01:21;4.90;99.90
46029;DHT22;31763;48.180;7.904;2022-11-28T02:03:50;4.70;99.90
46029;DHT22;31763;48.180;7.904;2022-11-28T02:06:21;4.70;99.90
46029;DHT22;31763;48.180;7.904;2022-11-28T02:08:52;4.60;99.90
46029;DHT22;31763;48.180;7.904;2022-11-28T02:12:15;4.40;99.90
46029;DHT22;31763;48.180;7.904;2022-11-28T02:35:48;5.40;99.90
46029;DHT22;31763;48.180;7.904;2022-11-28T02:46:44;5.30;99.90
46029;DHT22;31763;48.180;7.904;2022-11-28T02:49:20;5.80;99.90
46029;DHT22;31763;48.180;7.904;2022-11-28T02:51:54;6.10;99.90
46029;DHT22;31763;48.180;7.904;2022-11-28T02:54:23;6.50;99.90
46029;DHT22;31763;48.180;7.904;2022-11-28T02:56:53;6.80;99.90
46029;DHT22;31763;48.180;7.904;2022-11-28T03:08:11;7.00;99.90
46029;DHT22;31763;48.180;7.904;2022-11-28T03:13:47;7.00;99.90
46029;DHT22;31763;48.180;7.904;2022-11-28T03:16:28;7.30;99.90
46029;DHT22;31763;48.180;7.904;2022-11-28T03:19:24;7.30;99.90
46029;DHT22;31763;48.180;7.904;2022-11-28T03:22:17;7.20;99.90
46029;DHT22;31763;48.180;7.904;2022-11-28T03:28:13;7.50;99.90
46029;DHT22;31763;48.180;7.904;2022-11-28T03:30:56;7.70;99.90
46029;DHT22;31763;48.180;7.904;2022-11-28T03:33:36;7.70;99.90
46029;DHT22;31763;48.180;7.904;2022-11-28T03:36:21;7.80;99.90
46029;DHT22;31763;48.180;7.904;2022-11-28T03:39:04;7.80;99.90
46029;DHT22;31763;48.180;7.904;2022-11-28T03:41:53;8.00;99.90
46029;DHT22;31763;48.180;7.904;2022-11-28T03:44:50;7.90;99.90
46029;DHT22;31763;48.180;7.904;2022-11-28T03:47:50;8.00;99.90
46029;DHT22;31763;48.180;7.904;2022-11-28T03:50:41;7.90;99.90
46029;DHT22;31763;48.180;7.904;2022-11-28T03:53:22;8.20;99.90
46029;DHT22;31763;48.180;7.904;2022-11-28T03:56:08;7.90;99.90
46029;DHT22;31763;48.180;7.904;2022-11-28T03:59:02;7.90;99.90
46029;DHT22;31763;48.180;7.904;2022-11-28T04:11:08;7.70;99.90
46029;DHT22;31763;48.180;7.904;2022-11-28T04:13:55;7.70;99.90
46029;DHT22;31763;48.180;7.904;2022-11-28T04:16:46;7.60;99.90
46029;DHT22;31763;48.180;7.904;2022-11-28T04:19:28;7.70;99.90
46029;DHT22;31763;48.180;7.904;2022-11-28T04:22:13;7.60;99.90
46029;DHT22;31763;48.180;7.904;2022-11-28T04:24:59;7.70;99.90
46029;DHT22;31763;48.180;7.904;2022-11-28T04:27:38;7.70;99.90
46029;DHT22;31763;48.180;7.904;2022-11-28T04:30:09;7.60;99.90
46029;DHT22;31763;48.180;7.904;2022-11-28T04:32:39;7.50;99.90
46029;DHT22;31763;48.180;7.904;2022-11-28T04:35:20;7.50;99.90
46029;DHT22;31763;48.180;7.904;2022-11-28T04:37:51;7.50;99.90
46029;DHT22;31763;48.180;7.904;2022-11-28T04:40:22;7.40;99.90
46029;DHT22;31763;48.180;7.904;2022-11-28T04:42:54;7.30;99.90
46029;DHT22;31763;48.180;7.904;2022-11-28T04:45:31;7.20;99.90
46029;DHT22;31763;48.180;7.904;2022-11-28T04:48:00;7.10;99.90
46029;DHT22;31763;48.180;7.904;2022-11-28T04:50:49;7.10;99.90
46029;DHT22;31763;48.180;7.904;2022-11-28T04:53:29;7.10;99.90
46029;DHT22;31763;48.180;7.904;2022-11-28T04:56:02;7.10;99.90
46029;DHT22;31763;48.180;7.904;2022-11-28T04:58:42;7.20;99.90
46029;DHT22;31763;48.180;7.904;2022-11-28T05:01:22;7.10;99.90
46029;DHT22;31763;48.180;7.904;2022-11-28T05:03:52;7.00;99.90
46029;DHT22;31763;48.180;7.904;2022-11-28T05:06:31;7.10;99.90
46029;DHT22;31763;48.180;7.904;2022-11-28T05:08:59;7.20;99.90
46029;DHT22;31763;48.180;7.904;2022-11-28T05:11:27;7.30;99.90
46029;DHT22;31763;48.180;7.904;2022-11-28T05:13:54;7.20;99.90
46029;DHT22;31763;48.180;7.904;2022-11-28T05:16:21;7.20;99.90
46029;DHT22;31763;48.180;7.904;2022-11-28T05:18:49;7.10;99.90
46029;DHT22;31763;48.180;7.904;2022-11-28T05:21:15;7.10;99.90
46029;DHT22;31763;48.180;7.904;2022-11-28T05:23:43;7.10;99.90
46029;DHT22;31763;48.180;7.904;2022-11-28T05:26:16;7.10;99.90
46029;DHT22;31763;48.180;7.904;2022-11-28T05:28:46;7.10;99.90
46029;DHT22;31763;48.180;7.904;2022-11-28T05:31:16;7.30;99.90
46029;DHT22;31763;48.180;7.904;2022-11-28T05:33:43;7.20;99.90
46029;DHT22;31763;48.180;7.904;2022-11-28T05:36:12;7.40;99.90
46029;DHT22;31763;48.180;7.904;2022-11-28T05:38:40;7.40;99.90
46029;DHT22;31763;48.180;7.904;2022-11-28T05:41:08;7.40;99.90
46029;DHT22;31763;48.180;7.904;2022-11-28T05:43:35;7.50;99.90
46029;DHT22;31763;48.180;7.904;2022-11-28T05:46:05;7.40;99.90
46029;DHT22;31763;48.180;7.904;2022-11-28T05:48:32;7.40;99.90
46029;DHT22;31763;48.180;7.904;2022-11-28T05:50:59;7.30;99.90
46029;DHT22;31763;48.180;7.904;2022-11-28T05:53:26;7.40;99.90
46029;DHT22;31763;48.180;7.904;2022-11-28T05:55:53;7.50;99.90
46029;DHT22;31763;48.180;7.904;2022-11-28T05:58:19;7.40;99.90
46029;DHT22;31763;48.180;7.904;2022-11-28T06:00:46;7.60;99.90
46029;DHT22;31763;48.180;7.904;2022-11-28T06:03:13;7.60;99.90
46029;DHT22;31763;48.180;7.904;2022-11-28T06:05:42;7.40;99.90
46029;DHT22;31763;48.180;7.904;2022-11-28T06:08:12;7.40;99.90
46029;DHT22;31763;48.180;7.904;2022-11-28T06:10:39;7.30;99.90
46029;DHT22;31763;48.180;7.904;2022-11-28T06:13:07;7.40;99.90
46029;DHT22;31763;48.180;7.904;2022-11-28T06:15:34;7.30;99.90
46029;DHT22;31763;48.180;7.904;2022-11-28T06:18:04;7.40;99.90
46029;DHT22;31763;48.180;7.904;2022-11-28T06:20:34;7.40;99.90
46029;DHT22;31763;48.180;7.904;2022-11-28T06:23:01;7.20;99.90
46029;DHT22;31763;48.180;7.904;2022-11-28T06:25:28;7.10;99.90
46029;DHT22;31763;48.180;7.904;2022-11-28T06:27:55;7.00;99.90
46029;DHT22;31763;48.180;7.904;2022-11-28T06:30:21;7.00;99.90
46029;DHT22;31763;48.180;7.904;2022-11-28T06:32:48;7.10;99.90
46029;DHT22;31763;48.180;7.904;2022-11-28T06:35:15;7.20;99.90
46029;DHT22;31763;48.180;7.904;2022-11-28T06:37:42;7.30;99.90
46029;DHT22;31763;48.180;7.904;2022-11-28T06:40:09;7.20;99.90
46029;DHT22;31763;48.180;7.904;2022-11-28T06:42:36;7.10;99.90
46029;DHT22;31763;48.180;7.904;2022-11-28T06:45:04;7.20;99.90
46029;DHT22;31763;48.180;7.904;2022-11-28T06:47:31;7.20;99.90
46029;DHT22;31763;48.180;7.904;2022-11-28T06:49:58;7.10;99.90
46029;DHT22;31763;48.180;7.904;2022-11-28T06:52:25;7.10;99.90
46029;DHT22;31763;48.180;7.904;2022-11-28T06:54:52;7.20;99.90
46029;DHT22;31763;48.180;7.904;2022-11-28T06:57:18;7.20;99.90
46029;DHT22;31763;48.180;7.904;2022-11-28T06:59:47;7.30;99.90
46029;DHT22;31763;48.180;7.904;2022-11-28T07:02:14;7.30;99.90
46029;DHT22;31763;48.180;7.904;2022-11-28T07:04:41;7.30;99.90
46029;DHT22;31763;48.180;7.904;2022-11-28T07:07:08;7.40;99.90
46029;DHT22;31763;48.180;7.904;2022-11-28T07:09:41;7.50;99.90
46029;DHT22;31763;48.180;7.904;2022-11-28T07:12:09;7.50;99.90
46029;DHT22;31763;48.180;7.904;2022-11-28T07:14:36;7.50;99.90
46029;DHT22;31763;48.180;7.904;2022-11-28T07:17:03;7.60;99.90
46029;DHT22;31763;48.180;7.904;2022-11-28T07:19:30;7.50;99.90
46029;DHT22;31763;48.180;7.904;2022-11-28T07:21:57;7.60;99.90
46029;DHT22;31763;48.180;7.904;2022-11-28T07:24:24;7.60;99.90
46029;DHT22;31763;48.180;7.904;2022-11-28T07:26:51;7.60;99.90
46029;DHT22;31763;48.180;7.904;2022-11-28T07:29:18;7.60;99.90
46029;DHT22;31763;48.180;7.904;2022-11-28T07:31:45;7.60;99.90
46029;DHT22;31763;48.180;7.904;2022-11-28T07:34:12;7.60;99.90
46029;DHT22;31763;48.180;7.904;2022-11-28T07:36:39;7.60;99.90
46029;DHT22;31763;48.180;7.904;2022-11-28T07:39:07;7.60;99.90
46029;DHT22;31763;48.180;7.904;2022-11-28T07:41:34;7.60;99.90
46029;DHT22;31763;48.180;7.904;2022-11-28T07:44:01;7.60;99.90
46029;DHT22;31763;48.180;7.904;2022-11-28T07:46:30;7.60;99.90
46029;DHT22;31763;48.180;7.904;2022-11-28T07:48:57;7.60;99.90
46029;DHT22;31763;48.180;7.904;2022-11-28T07:51:27;7.60;99.90
46029;DHT22;31763;48.180;7.904;2022-11-28T07:53:55;7.60;99.90
46029;DHT22;31763;48.180;7.904;2022-11-28T07:56:25;7.70;99.90
46029;DHT22;31763;48.180;7.904;2022-11-28T07:59:13;7.70;99.90
46029;DHT22;31763;48.180;7.904;2022-11-28T08:01:40;7.60;99.90
46029;DHT22;31763;48.180;7.904;2022-11-28T08:04:08;7.70;99.90
46029;DHT22;31763;48.180;7.904;2022-11-28T08:06:38;7.80;99.90
46029;DHT22;31763;48.180;7.904;2022-11-28T08:09:06;7.80;99.90
46029;DHT22;31763;48.180;7.904;2022-11-28T08:11:34;7.70;99.90
46029;DHT22;31763;48.180;7.904;2022-11-28T08:14:01;7.70;99.90
46029;DHT22;31763;48.180;7.904;2022-11-28T08:16:28;7.70;99.90
46029;DHT22;31763;48.180;7.904;2022-11-28T08:18:56;7.80;99.90
46029;DHT22;31763;48.180;7.904;2022-11-28T08:21:29;7.80;99.90
46029;DHT22;31763;48.180;7.904;2022-11-28T08:23:59;7.80;99.90
46029;DHT22;31763;48.180;7.904;2022-11-28T08:26:28;7.80;99.90
46029;DHT22;31763;48.180;7.904;2022-11-28T08:28:57;7.90;99.90
46029;DHT22;31763;48.180;7.904;2022-11-28T08:31:27;7.90;99.90
46029;DHT22;31763;48.180;7.904;2022-11-28T08:33:59;7.80;99.90
46029;DHT22;31763;48.180;7.904;2022-11-28T08:36:27;7.80;99.90
46029;DHT22;31763;48.180;7.904;2022-11-28T08:38:55;7.80;99.90
46029;DHT22;31763;48.180;7.904;2022-11-28T08:41:44;7.90;99.90
46029;DHT22;31763;48.180;7.904;2022-11-28T08:44:11;8.00;99.90
46029;DHT22;31763;48.180;7.904;2022-11-28T08:46:38;8.00;99.90
46029;DHT22;31763;48.180;7.904;2022-11-28T08:49:05;8.10;99.90
46029;DHT22;31763;48.180;7.904;2022-11-28T08:51:32;8.00;99.90
46029;DHT22;31763;48.180;7.904;2022-11-28T08:53:59;8.10;99.90
46029;DHT22;31763;48.180;7.904;2022-11-28T08:56:27;8.10;99.90
46029;DHT22;31763;48.180;7.904;2022-11-28T08:58:54;8.10;99.90
46029;DHT22;31763;48.180;7.904;2022-11-28T09:01:23;8.20;99.90
46029;DHT22;31763;48.180;7.904;2022-11-28T09:03:51;8.20;99.90
46029;DHT22;31763;48.180;7.904;2022-11-28T09:06:20;8.20;99.90
46029;DHT22;31763;48.180;7.904;2022-11-28T09:08:48;8.20;99.90
46029;DHT22;31763;48.180;7.904;2022-11-28T09:11:18;8.30;99.90
46029;DHT22;31763;48.180;7.904;2022-11-28T09:13:46;8.30;99.90
46029;DHT22;31763;48.180;7.904;2022-11-28T09:16:13;8.30;99.90
46029;DHT22;31763;48.180;7.904;2022-11-28T09:18:40;8.40;99.90
46029;DHT22;31763;48.180;7.904;2022-11-28T09:21:09;8.30;99.90
46029;DHT22;31763;48.180;7.904;2022-11-28T09:23:39;8.40;99.90
46029;DHT22;31763;48.180;7.904;2022-11-28T09:26:11;8.30;99.90
46029;DHT22;31763;48.180;7.904;2022-11-28T09:28:43;8.30;99.90
46029;DHT22;31763;48.180;7.904;2022-11-28T09:31:11;8.30;99.90
46029;DHT22;31763;48.180;7.904;2022-11-28T09:33:39;8.20;99.90
46029;DHT22;31763;48.180;7.904;2022-11-28T09:36:12;8.30;99.90
46029;DHT22;31763;48.180;7.904;2022-11-28T09:38:40;8.30;99.90
46029;DHT22;31763;48.180;7.904;2022-11-28T09:42:35;8.30;99.90
46029;DHT22;31763;48.180;7.904;2022-11-28T09:47:18;8.10;99.90
46029;DHT22;31763;48.180;7.904;2022-11-28T09:49:58;8.20;99.90
46029;DHT22;31763;48.180;7.904;2022-11-28T09:52:48;8.10;99.90
46029;DHT22;31763;48.180;7.904;2022-11-28T09:55:49;8.10;99.90
46029;DHT22;31763;48.180;7.904;2022-11-28T10:01:00;8.00;99.90
46029;DHT22;31763;48.180;7.904;2022-11-28T10:03:54;8.00;99.90
46029;DHT22;31763;48.180;7.904;2022-11-28T10:09:30;7.90;99.90
46029;DHT22;31763;48.180;7.904;2022-11-28T10:15:08;7.80;99.90
46029;DHT22;31763;48.180;7.904;2022-11-28T10:20:33;7.50;99.90
46029;DHT22;31763;48.180;7.904;2022-11-28T10:23:15;7.40;99.90
46029;DHT22;31763;48.180;7.904;2022-11-28T10:26:15;7.20;99.90
46029;DHT22;31763;48.180;7.904;2022-11-28T10:28:51;7.10;99.90
46029;DHT22;31763;48.180;7.904;2022-11-28T10:31:40;7.00;99.90
46029;DHT22;31763;48.180;7.904;2022-11-28T10:34:26;6.90;99.90
46029;DHT22;31763;48.180;7.904;2022-11-28T10:36:56;6.90;99.90
46029;DHT22;31763;48.180;7.904;2022-11-28T10:39:27;6.90;99.90
46029;DHT22;31763;48.180;7.904;2022-11-28T10:42:11;6.90;99.90
46029;DHT22;31763;48.180;7.904;2022-11-28T10:45:04;6.90;99.90
46029;DHT22;31763;48.180;7.904;2022-11-28T10:48:08;6.80;99.90
46029;DHT22;31763;48.180;7.904;2022-11-28T10:54:41;6.90;99.90
46029;DHT22;31763;48.180;7.904;2022-11-28T10:57:29;6.80;99.90
46029;DHT22;31763;48.180;7.904;2022-11-28T11:00:10;7.00;99.90
46029;DHT22;31763;48.180;7.904;2022-11-28T11:02:50;6.90;99.90
46029;DHT22;31763;48.180;7.904;2022-11-28T11:05:25;6.90;99.90
46029;DHT22;31763;48.180;7.904;2022-11-28T11:08:01;6.80;99.90
46029;DHT22;31763;48.180;7.904;2022-11-28T11:13:23;6.80;99.90
46029;DHT22;31763;48.180;7.904;2022-11-28T11:16:00;6.90;99.90
46029;DHT22;31763;48.180;7.904;2022-11-28T11:18:31;6.90;99.90
46029;DHT22;31763;48.180;7.904;2022-11-28T11:21:23;6.90;99.90
46029;DHT22;31763;48.180;7.904;2022-11-28T11:24:15;6.90;99.90
46029;DHT22;31763;48.180;7.904;2022-11-28T11:26:46;7.00;99.90
46029;DHT22;31763;48.180;7.904;2022-11-28T11:29:32;7.10;99.90
46029;DHT22;31763;48.180;7.904;2022-11-28T11:32:02;7.10;99.90
46029;DHT22;31763;48.180;7.904;2022-11-28T11:34:36;7.20;99.90
46029;DHT22;31763;48.180;7.904;2022-11-28T11:40:25;7.20;99.90
46029;DHT22;31763;48.180;7.904;2022-11-28T11:42:57;7.30;99.90
46029;DHT22;31763;48.180;7.904;2022-11-28T11:45:31;7.30;99.90
46029;DHT22;31763;48.180;7.904;2022-11-28T11:48:00;7.30;99.90
46029;DHT22;31763;48.180;7.904;2022-11-28T11:50:30;7.30;99.90
46029;DHT22;31763;48.180;7.904;2022-11-28T11:53:01;7.40;99.90
46029;DHT22;31763;48.180;7.904;2022-11-28T11:55:50;7.40;99.90
46029;DHT22;31763;48.180;7.904;2022-11-28T11:58:29;7.50;99.90
46029;DHT22;31763;48.180;7.904;2022-11-28T12:01:01;7.50;99.90
46029;DHT22;31763;48.180;7.904;2022-11-28T12:03:30;7.50;99.90
46029;DHT22;31763;48.180;7.904;2022-11-28T12:06:04;7.50;99.90
46029;DHT22;31763;48.180;7.904;2022-11-28T12:08:46;7.60;99.90
46029;DHT22;31763;48.180;7.904;2022-11-28T12:11:34;7.50;99.90
46029;DHT22;31763;48.180;7.904;2022-11-28T12:14:31;7.60;99.90
46029;DHT22;31763;48.180;7.904;2022-11-28T12:17:31;7.60;99.90
46029;DHT22;31763;48.180;7.904;2022-11-28T12:21:05;7.60;99.90
46029;DHT22;31763;48.180;7.904;2022-11-28T12:26:51;7.70;99.90
46029;DHT22;31763;48.180;7.904;2022-11-28T12:29:53;7.70;99.90
46029;DHT22;31763;48.180;7.904;2022-11-28T12:35:42;7.70;99.90
46029;DHT22;31763;48.180;7.904;2022-11-28T12:58:45;7.80;99.90
46029;DHT22;31763;48.180;7.904;2022-11-28T13:13:52;7.90;99.90
46029;DHT22;31763;48.180;7.904;2022-11-28T13:19:27;7.90;99.90
46029;DHT22;31763;48.180;7.904;2022-11-28T13:22:14;7.80;99.90
46029;DHT22;31763;48.180;7.904;2022-11-28T13:28:12;7.80;99.90
46029;DHT22;31763;48.180;7.904;2022-11-28T13:30:51;7.80;99.90
46029;DHT22;31763;48.180;7.904;2022-11-28T13:36:26;7.80;99.90
46029;DHT22;31763;48.180;7.904;2022-11-28T13:39:43;7.80;99.90
46029;DHT22;31763;48.180;7.904;2022-11-28T13:42:28;7.80;99.90
46029;DHT22;31763;48.180;7.904;2022-11-28T13:45:44;7.80;99.90
46029;DHT22;31763;48.180;7.904;2022-11-28T13:51:39;7.80;99.90
46029;DHT22;31763;48.180;7.904;2022-11-28T13:57:03;7.80;99.90
46029;DHT22;31763;48.180;7.904;2022-11-28T13:59:36;7.80;99.90
46029;DHT22;31763;48.180;7.904;2022-11-28T14:02:20;7.80;99.90
46029;DHT22;31763;48.180;7.904;2022-11-28T14:04:49;7.80;99.90
46029;DHT22;31763;48.180;7.904;2022-11-28T14:07:28;7.80;99.90
46029;DHT22;31763;48.180;7.904;2022-11-28T14:12:53;7.80;99.90
46029;DHT22;31763;48.180;7.904;2022-11-28T14:21:37;7.70;99.90
46029;DHT22;31763;48.180;7.904;2022-11-28T14:24:50;7.70;99.90
46029;DHT22;31763;48.180;7.904;2022-11-28T14:27:31;7.70;99.90
46029;DHT22;31763;48.180;7.904;2022-11-28T14:29:59;7.70;99.90
46029;DHT22;31763;48.180;7.904;2022-11-28T14:32:33;7.70;99.90
46029;DHT22;31763;48.180;7.904;2022-11-28T14:35:05;7.70;99.90
46029;DHT22;31763;48.180;7.904;2022-11-28T14:37:53;7.70;99.90
46029;DHT22;31763;48.180;7.904;2022-11-28T14:45:50;7.70;99.90
46029;DHT22;31763;48.180;7.904;2022-11-28T14:48:26;7.70;99.90
46029;DHT22;31763;48.180;7.904;2022-11-28T14:50:56;7.70;99.90
46029;DHT22;31763;48.180;7.904;2022-11-28T14:53:42;7.70;99.90
46029;DHT22;31763;48.180;7.904;2022-11-28T14:59:02;7.60;99.90
46029;DHT22;31763;48.180;7.904;2022-11-28T15:16:46;7.40;99.90
46029;DHT22;31763;48.180;7.904;2022-11-28T15:19:42;7.30;99.90
46029;DHT22;31763;48.180;7.904;2022-11-28T15:25:22;7.30;99.90
46029;DHT22;31763;48.180;7.904;2022-11-28T15:27:51;7.20;99.90
46029;DHT22;31763;48.180;7.904;2022-11-28T15:30:27;7.20;99.90
46029;DHT22;31763;48.180;7.904;2022-11-28T15:32:59;7.10;99.90
46029;DHT22;31763;48.180;7.904;2022-11-28T15:35:27;7.10;99.90
46029;DHT22;31763;48.180;7.904;2022-11-28T15:37:56;7.10;99.90
46029;DHT22;31763;48.180;7.904;2022-11-28T15:40:35;7.00;99.90
46029;DHT22;31763;48.180;7.904;2022-11-28T15:43:03;7.00;99.90
46029;DHT22;31763;48.180;7.904;2022-11-28T15:45:38;6.90;99.90
46029;DHT22;31763;48.180;7.904;2022-11-28T15:48:25;6.90;99.90
46029;DHT22;31763;48.180;7.904;2022-11-28T15:50:53;6.80;99.90
46029;DHT22;31763;48.180;7.904;2022-11-28T15:53:21;6.80;99.90
46029;DHT22;31763;48.180;7.904;2022-11-28T15:56:14;6.80;99.90
46029;DHT22;31763;48.180;7.904;2022-11-28T15:58:42;6.80;99.90
46029;DHT22;31763;48.180;7.904;2022-11-28T16:04:13;6.70;99.90
46029;DHT22;31763;48.180;7.904;2022-11-28T16:06:45;6.70;99.90
46029;DHT22;31763;48.180;7.904;2022-11-28T16:11:48;6.70;99.90
46029;DHT22;31763;48.180;7.904;2022-11-28T16:14:34;6.60;99.90
46029;DHT22;31763;48.180;7.904;2022-11-28T16:17:17;6.60;99.90
46029;DHT22;31763;48.180;7.904;2022-11-28T16:19:48;6.60;99.90
46029;DHT22;31763;48.180;7.904;2022-11-28T16:22:18;6.60;99.90
46029;DHT22;31763;48.180;7.904;2022-11-28T16:24:51;6.60;99.90
46029;DHT22;31763;48.180;7.904;2022-11-28T16:27:35;6.60;99.90
46029;DHT22;31763;48.180;7.904;2022-11-28T16:33:00;6.60;99.90
46029;DHT22;31763;48.180;7.904;2022-11-28T16:35:36;6.60;99.90
46029;DHT22;31763;48.180;7.904;2022-11-28T16:38:17;6.60;99.90
46029;DHT22;31763;48.180;7.904;2022-11-28T16:40:47;6.60;99.90
46029;DHT22;31763;48.180;7.904;2022-11-28T16:43:41;6.60;99.90
46029;DHT22;31763;48.180;7.904;2022-11-28T16:46:18;6.60;99.90
46029;DHT22;31763;48.180;7.904;2022-11-28T16:48:55;6.60;99.90
46029;DHT22;31763;48.180;7.904;2022-11-28T16:51:31;6.70;99.90
46029;DHT22;31763;48.180;7.904;2022-11-28T16:54:21;6.60;99.90
46029;DHT22;31763;48.180;7.904;2022-11-28T16:56:55;6.70;99.90
46029;DHT22;31763;48.180;7.904;2022-11-28T16:59:43;6.70;99.90
46029;DHT22;31763;48.180;7.904;2022-11-28T17:02:14;6.70;99.90
46029;DHT22;31763;48.180;7.904;2022-11-28T17:04:50;6.70;99.90
46029;DHT22;31763;48.180;7.904;2022-11-28T17:07:20;6.70;99.90
46029;DHT22;31763;48.180;7.904;2022-11-28T17:09:49;6.60;99.90
46029;DHT22;31763;48.180;7.904;2022-11-28T17:12:30;6.60;99.90
46029;DHT22;31763;48.180;7.904;2022-11-28T17:15:00;6.70;99.90
46029;DHT22;31763;48.180;7.904;2022-11-28T17:17:26;6.60;99.90
46029;DHT22;31763;48.180;7.904;2022-11-28T17:19:55;6.60;99.90
46029;DHT22;31763;48.180;7.904;2022-11-28T17:22:24;6.60;99.90
46029;DHT22;31763;48.180;7.904;2022-11-28T17:24:59;6.60;99.90
46029;DHT22;31763;48.180;7.904;2022-11-28T17:27:26;6.60;99.90
46029;DHT22;31763;48.180;7.904;2022-11-28T17:29:53;6.60;99.90
46029;DHT22;31763;48.180;7.904;2022-11-28T17:32:20;6.60;99.90
46029;DHT22;31763;48.180;7.904;2022-11-28T17:34:47;6.60;99.90
46029;DHT22;31763;48.180;7.904;2022-11-28T17:37:14;6.60;99.90
46029;DHT22;31763;48.180;7.904;2022-11-28T17:39:41;6.60;99.90
46029;DHT22;31763;48.180;7.904;2022-11-28T17:42:29;6.60;99.90
46029;DHT22;31763;48.180;7.904;2022-11-28T17:44:56;6.60;99.90
46029;DHT22;31763;48.180;7.904;2022-11-28T17:47:23;6.60;99.90
46029;DHT22;31763;48.180;7.904;2022-11-28T17:49:49;6.60;99.90
46029;DHT22;31763;48.180;7.904;2022-11-28T17:52:17;6.60;99.90
46029;DHT22;31763;48.180;7.904;2022-11-28T17:54:45;6.60;99.90
46029;DHT22;31763;48.180;7.904;2022-11-28T17:57:12;6.60;99.90
46029;DHT22;31763;48.180;7.904;2022-11-28T17:59:39;6.60;99.90
46029;DHT22;31763;48.180;7.904;2022-11-28T18:02:06;6.60;99.90
46029;DHT22;31763;48.180;7.904;2022-11-28T18:04:33;6.60;99.90
46029;DHT22;31763;48.180;7.904;2022-11-28T18:07:02;6.70;99.90
46029;DHT22;31763;48.180;7.904;2022-11-28T18:09:29;6.60;99.90
46029;DHT22;31763;48.180;7.904;2022-11-28T18:11:56;6.60;99.90
46029;DHT22;31763;48.180;7.904;2022-11-28T18:14:23;6.60;99.90
46029;DHT22;31763;48.180;7.904;2022-11-28T18:16:49;6.60;99.90
46029;DHT22;31763;48.180;7.904;2022-11-28T18:19:16;6.60;99.90
46029;DHT22;31763;48.180;7.904;2022-11-28T18:21:43;6.60;99.90
46029;DHT22;31763;48.180;7.904;2022-11-28T18:24:10;6.60;99.90
46029;DHT22;31763;48.180;7.904;2022-11-28T18:26:37;6.60;99.90
46029;DHT22;31763;48.180;7.904;2022-11-28T18:29:05;6.60;99.90
46029;DHT22;31763;48.180;7.904;2022-11-28T18:31:35;6.60;99.90
46029;DHT22;31763;48.180;7.904;2022-11-28T18:34:04;6.60;99.90
46029;DHT22;31763;48.180;7.904;2022-11-28T18:36:34;6.60;99.90
46029;DHT22;31763;48.180;7.904;2022-11-28T18:39:05;6.60;99.90
46029;DHT22;31763;48.180;7.904;2022-11-28T18:41:34;6.60;99.90
46029;DHT22;31763;48.180;7.904;2022-11-28T18:44:03;6.60;99.90
46029;DHT22;31763;48.180;7.904;2022-11-28T18:46:30;6.60;99.90
46029;DHT22;31763;48.180;7.904;2022-11-28T18:48:58;6.60;99.90
46029;DHT22;31763;48.180;7.904;2022-11-28T18:51:28;6.60;99.90
46029;DHT22;31763;48.180;7.904;2022-11-28T18:53:57;6.60;99.90
46029;DHT22;31763;48.180;7.904;2022-11-28T18:56:25;6.60;99.90
46029;DHT22;31763;48.180;7.904;2022-11-28T18:58:53;6.60;99.90
46029;DHT22;31763;48.180;7.904;2022-11-28T19:01:25;6.60;99.90
46029;DHT22;31763;48.180;7.904;2022-11-28T19:04:01;6.60;99.90
46029;DHT22;31763;48.180;7.904;2022-11-28T19:06:30;6.60;99.90
46029;DHT22;31763;48.180;7.904;2022-11-28T19:08:59;6.60;99.90
46029;DHT22;31763;48.180;7.904;2022-11-28T19:11:27;6.60;99.90
46029;DHT22;31763;48.180;7.904;2022-11-28T19:13:55;6.50;99.90
46029;DHT22;31763;48.180;7.904;2022-11-28T19:16:27;6.50;99.90
46029;DHT22;31763;48.180;7.904;2022-11-28T19:18:55;6.50;99.90
46029;DHT22;31763;48.180;7.904;2022-11-28T19:21:28;6.50;99.90
46029;DHT22;31763;48.180;7.904;2022-11-28T19:23:58;6.50;99.90